sensor_id;sensor_type;location;lat;lon;timestamp;P1;durP1;ratioP1;P2;durP2;ratioP2
3280;SDS011;1652;51.318;6.202;2023-02-12T00:02:29;74.27;;;32.80;;
3280;SDS011;1652;51.318;6.202;2023-02-12T00:04:56;64.87;;;32.70;;
3280;SDS011;1652;51.318;6.202;2023-02-12T00:07:22;80.30;;;34.43;;
3280;SDS011;1652;51.318;6.202;2023-02-12T00:09:49;80.63;;;33.83;;
3280;SDS011;1652;51.318;6.202;2023-02-12T00:12:19;71.50;;;34.60;;
3280;SDS011;1652;51.318;6.202;2023-02-12T00:14:46;76.90;;;33.67;;
3280;SDS011;1652;51.318;6.202;2023-02-12T00:17:13;61.77;;;30.73;;
3280;SDS011;1652;51.318;6.202;2023-02-12T00:19:39;64.23;;;32.00;;
3280;SDS011;1652;51.318;6.202;2023-02-12T00:22:06;66.50;;;34.57;;
3280;SDS011;1652;51.318;6.202;2023-02-12T00:24:33;56.50;;;29.80;;
3280;SDS011;1652;51.318;6.202;2023-02-12T00:27:00;67.77;;;30.80;;
3280;SDS011;1652;51.318;6.202;2023-02-12T00:29:26;62.57;;;31.63;;
3280;SDS011;1652;51.318;6.202;2023-02-12T00:31:53;63.77;;;32.40;;
3280;SDS011;1652;51.318;6.202;2023-02-12T00:34:20;64.50;;;32.40;;
3280;SDS011;1652;51.318;6.202;2023-02-12T00:36:47;70.70;;;33.50;;
3280;SDS011;1652;51.318;6.202;2023-02-12T00:39:14;67.07;;;33.47;;
3280;SDS011;1652;51.318;6.202;2023-02-12T00:41:40;70.67;;;31.77;;
3280;SDS011;1652;51.318;6.202;2023-02-12T00:44:07;58.00;;;31.07;;
3280;SDS011;1652;51.318;6.202;2023-02-12T00:46:34;64.13;;;30.10;;
3280;SDS011;1652;51.318;6.202;2023-02-12T00:49:01;64.03;;;32.37;;
3280;SDS011;1652;51.318;6.202;2023-02-12T00:51:28;73.60;;;32.37;;
3280;SDS011;1652;51.318;6.202;2023-02-12T00:53:54;60.73;;;30.20;;
3280;SDS011;1652;51.318;6.202;2023-02-12T00:56:21;60.50;;;31.03;;
3280;SDS011;1652;51.318;6.202;2023-02-12T00:58:48;63.10;;;30.23;;
3280;SDS011;1652;51.318;6.202;2023-02-12T01:01:16;59.07;;;30.87;;
3280;SDS011;1652;51.318;6.202;2023-02-12T01:03:43;66.87;;;30.40;;
3280;SDS011;1652;51.318;6.202;2023-02-12T01:06:10;72.70;;;32.60;;
3280;SDS011;1652;51.318;6.202;2023-02-12T01:08:37;58.53;;;30.60;;
3280;SDS011;1652;51.318;6.202;2023-02-12T01:11:10;63.40;;;31.60;;
3280;SDS011;1652;51.318;6.202;2023-02-12T01:13:38;59.27;;;31.33;;
3280;SDS011;1652;51.318;6.202;2023-02-12T01:16:23;58.87;;;32.30;;
3280;SDS011;1652;51.318;6.202;2023-02-12T01:18:50;59.97;;;31.67;;
3280;SDS011;1652;51.318;6.202;2023-02-12T01:21:25;62.23;;;31.77;;
3280;SDS011;1652;51.318;6.202;2023-02-12T01:23:54;55.47;;;30.27;;
3280;SDS011;1652;51.318;6.202;2023-02-12T01:26:21;63.97;;;30.80;;
3280;SDS011;1652;51.318;6.202;2023-02-12T01:28:49;70.37;;;32.17;;
3280;SDS011;1652;51.318;6.202;2023-02-12T01:31:20;67.70;;;33.80;;
3280;SDS011;1652;51.318;6.202;2023-02-12T01:33:49;61.40;;;30.97;;
3280;SDS011;1652;51.318;6.202;2023-02-12T01:36:19;63.03;;;30.30;;
3280;SDS011;1652;51.318;6.202;2023-02-12T01:38:46;61.57;;;31.90;;
3280;SDS011;1652;51.318;6.202;2023-02-12T01:41:14;61.53;;;31.10;;
3280;SDS011;1652;51.318;6.202;2023-02-12T01:43:43;63.30;;;30.50;;
3280;SDS011;1652;51.318;6.202;2023-02-12T01:46:12;54.90;;;28.40;;
3280;SDS011;1652;51.318;6.202;2023-02-12T01:48:44;60.67;;;31.20;;
3280;SDS011;1652;51.318;6.202;2023-02-12T01:51:13;65.90;;;30.10;;
3280;SDS011;1652;51.318;6.202;2023-02-12T01:53:48;54.33;;;29.07;;
3280;SDS011;1652;51.318;6.202;2023-02-12T01:56:19;55.73;;;29.13;;
3280;SDS011;1652;51.318;6.202;2023-02-12T01:58:46;57.50;;;28.20;;
3280;SDS011;1652;51.318;6.202;2023-02-12T02:01:18;56.23;;;29.00;;
3280;SDS011;1652;51.318;6.202;2023-02-12T02:03:54;58.87;;;29.10;;
3280;SDS011;1652;51.318;6.202;2023-02-12T02:06:26;58.50;;;31.13;;
3280;SDS011;1652;51.318;6.202;2023-02-12T02:08:56;58.67;;;29.30;;
3280;SDS011;1652;51.318;6.202;2023-02-12T02:11:23;58.67;;;30.60;;
3280;SDS011;1652;51.318;6.202;2023-02-12T02:14:09;59.17;;;29.53;;
3280;SDS011;1652;51.318;6.202;2023-02-12T02:34:02;58.93;;;30.17;;
3280;SDS011;1652;51.318;6.202;2023-02-12T02:36:43;54.03;;;28.23;;
3280;SDS011;1652;51.318;6.202;2023-02-12T02:42:09;64.30;;;29.30;;
3280;SDS011;1652;51.318;6.202;2023-02-12T02:44:56;61.80;;;30.33;;
3280;SDS011;1652;51.318;6.202;2023-02-12T02:47:52;57.73;;;28.93;;
3280;SDS011;1652;51.318;6.202;2023-02-12T02:50:23;58.80;;;26.70;;
3280;SDS011;1652;51.318;6.202;2023-02-12T02:53:04;59.70;;;29.77;;
3280;SDS011;1652;51.318;6.202;2023-02-12T02:55:50;57.43;;;27.43;;
3280;SDS011;1652;51.318;6.202;2023-02-12T02:58:22;59.23;;;28.43;;
3280;SDS011;1652;51.318;6.202;2023-02-12T03:00:57;60.97;;;29.47;;
3280;SDS011;1652;51.318;6.202;2023-02-12T03:03:37;62.47;;;30.03;;
3280;SDS011;1652;51.318;6.202;2023-02-12T03:06:19;53.37;;;30.10;;
3280;SDS011;1652;51.318;6.202;2023-02-12T03:08:51;61.13;;;29.30;;
3280;SDS011;1652;51.318;6.202;2023-02-12T03:11:34;52.83;;;29.90;;
3280;SDS011;1652;51.318;6.202;2023-02-12T03:14:07;51.03;;;27.73;;
3280;SDS011;1652;51.318;6.202;2023-02-12T03:16:57;53.33;;;29.47;;
3280;SDS011;1652;51.318;6.202;2023-02-12T03:19:29;53.07;;;28.50;;
3280;SDS011;1652;51.318;6.202;2023-02-12T03:22:01;59.93;;;31.50;;
3280;SDS011;1652;51.318;6.202;2023-02-12T03:24:42;58.33;;;30.40;;
3280;SDS011;1652;51.318;6.202;2023-02-12T03:27:24;63.73;;;28.73;;
3280;SDS011;1652;51.318;6.202;2023-02-12T03:29:54;61.33;;;29.60;;
3280;SDS011;1652;51.318;6.202;2023-02-12T03:32:28;62.23;;;29.87;;
3280;SDS011;1652;51.318;6.202;2023-02-12T03:35:14;57.67;;;30.10;;
3280;SDS011;1652;51.318;6.202;2023-02-12T03:40:45;60.63;;;28.70;;
3280;SDS011;1652;51.318;6.202;2023-02-12T03:43:26;55.10;;;29.07;;
3280;SDS011;1652;51.318;6.202;2023-02-12T03:53:40;58.47;;;30.43;;
3280;SDS011;1652;51.318;6.202;2023-02-12T03:56:09;60.77;;;29.53;;
3280;SDS011;1652;51.318;6.202;2023-02-12T03:58:40;70.37;;;31.40;;
3280;SDS011;1652;51.318;6.202;2023-02-12T04:01:08;57.60;;;29.23;;
3280;SDS011;1652;51.318;6.202;2023-02-12T04:03:36;60.73;;;30.27;;
3280;SDS011;1652;51.318;6.202;2023-02-12T04:06:03;50.70;;;28.23;;
3280;SDS011;1652;51.318;6.202;2023-02-12T04:08:30;58.13;;;30.20;;
3280;SDS011;1652;51.318;6.202;2023-02-12T04:11:02;58.63;;;28.90;;
3280;SDS011;1652;51.318;6.202;2023-02-12T04:13:33;51.60;;;28.37;;
3280;SDS011;1652;51.318;6.202;2023-02-12T04:16:24;57.30;;;28.23;;
3280;SDS011;1652;51.318;6.202;2023-02-12T04:18:59;63.27;;;28.10;;
3280;SDS011;1652;51.318;6.202;2023-02-12T04:21:36;55.23;;;29.40;;
3280;SDS011;1652;51.318;6.202;2023-02-12T04:24:33;50.30;;;28.10;;
3280;SDS011;1652;51.318;6.202;2023-02-12T04:27:24;64.93;;;27.17;;
3280;SDS011;1652;51.318;6.202;2023-02-12T04:30:04;60.43;;;29.10;;
3280;SDS011;1652;51.318;6.202;2023-02-12T04:32:42;52.43;;;29.30;;
3280;SDS011;1652;51.318;6.202;2023-02-12T04:35:21;57.97;;;28.73;;
3280;SDS011;1652;51.318;6.202;2023-02-12T04:40:40;55.90;;;28.90;;
3280;SDS011;1652;51.318;6.202;2023-02-12T04:43:08;52.80;;;27.40;;
3280;SDS011;1652;51.318;6.202;2023-02-12T04:45:36;63.60;;;28.10;;
3280;SDS011;1652;51.318;6.202;2023-02-12T04:48:03;58.83;;;30.20;;
3280;SDS011;1652;51.318;6.202;2023-02-12T04:50:40;57.87;;;27.90;;
3280;SDS011;1652;51.318;6.202;2023-02-12T04:53:08;55.40;;;28.97;;
3280;SDS011;1652;51.318;6.202;2023-02-12T04:55:35;54.00;;;28.90;;
3280;SDS011;1652;51.318;6.202;2023-02-12T04:58:03;55.23;;;28.23;;
3280;SDS011;1652;51.318;6.202;2023-02-12T05:00:30;54.50;;;28.03;;
3280;SDS011;1652;51.318;6.202;2023-02-12T05:02:57;53.20;;;27.83;;
3280;SDS011;1652;51.318;6.202;2023-02-12T05:05:24;53.27;;;28.00;;
3280;SDS011;1652;51.318;6.202;2023-02-12T05:08:04;53.47;;;27.30;;
3280;SDS011;1652;51.318;6.202;2023-02-12T05:10:31;54.03;;;29.27;;
3280;SDS011;1652;51.318;6.202;2023-02-12T05:12:58;56.43;;;27.97;;
3280;SDS011;1652;51.318;6.202;2023-02-12T05:15:24;52.87;;;29.40;;
3280;SDS011;1652;51.318;6.202;2023-02-12T05:17:51;57.13;;;27.83;;
3280;SDS011;1652;51.318;6.202;2023-02-12T05:20:18;52.03;;;27.77;;
3280;SDS011;1652;51.318;6.202;2023-02-12T05:22:45;56.07;;;29.10;;
3280;SDS011;1652;51.318;6.202;2023-02-12T05:25:16;58.07;;;27.73;;
3280;SDS011;1652;51.318;6.202;2023-02-12T05:27:42;58.63;;;29.10;;
3280;SDS011;1652;51.318;6.202;2023-02-12T05:30:09;55.13;;;27.43;;
3280;SDS011;1652;51.318;6.202;2023-02-12T05:32:36;55.87;;;30.20;;
3280;SDS011;1652;51.318;6.202;2023-02-12T05:35:03;58.07;;;29.00;;
3280;SDS011;1652;51.318;6.202;2023-02-12T05:37:32;53.93;;;28.47;;
3280;SDS011;1652;51.318;6.202;2023-02-12T05:40:04;56.10;;;28.40;;
3280;SDS011;1652;51.318;6.202;2023-02-12T05:42:32;53.57;;;27.90;;
3280;SDS011;1652;51.318;6.202;2023-02-12T05:44:58;54.37;;;28.13;;
3280;SDS011;1652;51.318;6.202;2023-02-12T05:47:25;51.77;;;28.27;;
3280;SDS011;1652;51.318;6.202;2023-02-12T05:49:52;56.73;;;29.20;;
3280;SDS011;1652;51.318;6.202;2023-02-12T05:52:19;58.77;;;30.53;;
3280;SDS011;1652;51.318;6.202;2023-02-12T05:54:48;57.40;;;29.67;;
3280;SDS011;1652;51.318;6.202;2023-02-12T05:57:15;49.63;;;27.80;;
3280;SDS011;1652;51.318;6.202;2023-02-12T05:59:42;55.07;;;29.43;;
3280;SDS011;1652;51.318;6.202;2023-02-12T06:02:09;56.43;;;30.27;;
3280;SDS011;1652;51.318;6.202;2023-02-12T06:04:36;68.20;;;31.27;;
3280;SDS011;1652;51.318;6.202;2023-02-12T06:07:02;62.90;;;31.00;;
3280;SDS011;1652;51.318;6.202;2023-02-12T06:09:29;60.40;;;30.63;;
3280;SDS011;1652;51.318;6.202;2023-02-12T06:11:56;61.57;;;29.90;;
3280;SDS011;1652;51.318;6.202;2023-02-12T06:14:23;70.63;;;31.60;;
3280;SDS011;1652;51.318;6.202;2023-02-12T06:16:50;66.00;;;30.83;;
3280;SDS011;1652;51.318;6.202;2023-02-12T06:19:17;58.90;;;30.50;;
3280;SDS011;1652;51.318;6.202;2023-02-12T06:21:45;61.90;;;32.67;;
3280;SDS011;1652;51.318;6.202;2023-02-12T06:24:13;60.43;;;29.83;;
3280;SDS011;1652;51.318;6.202;2023-02-12T06:26:40;58.47;;;29.70;;
3280;SDS011;1652;51.318;6.202;2023-02-12T06:29:07;57.47;;;30.10;;
3280;SDS011;1652;51.318;6.202;2023-02-12T06:31:35;58.97;;;31.40;;
3280;SDS011;1652;51.318;6.202;2023-02-12T06:34:04;59.80;;;30.10;;
3280;SDS011;1652;51.318;6.202;2023-02-12T06:36:32;56.27;;;29.97;;
3280;SDS011;1652;51.318;6.202;2023-02-12T06:39:02;62.20;;;30.90;;
3280;SDS011;1652;51.318;6.202;2023-02-12T06:41:29;60.90;;;31.03;;
3280;SDS011;1652;51.318;6.202;2023-02-12T06:43:56;61.43;;;31.50;;
3280;SDS011;1652;51.318;6.202;2023-02-12T06:46:23;65.17;;;33.60;;
3280;SDS011;1652;51.318;6.202;2023-02-12T06:48:53;56.83;;;29.90;;
3280;SDS011;1652;51.318;6.202;2023-02-12T06:51:22;57.17;;;30.30;;
3280;SDS011;1652;51.318;6.202;2023-02-12T06:53:49;59.43;;;29.40;;
3280;SDS011;1652;51.318;6.202;2023-02-12T06:56:18;52.77;;;29.60;;
3280;SDS011;1652;51.318;6.202;2023-02-12T06:58:46;61.03;;;30.87;;
3280;SDS011;1652;51.318;6.202;2023-02-12T07:01:20;55.87;;;29.53;;
3280;SDS011;1652;51.318;6.202;2023-02-12T07:03:52;54.27;;;29.10;;
3280;SDS011;1652;51.318;6.202;2023-02-12T07:06:21;55.97;;;29.50;;
3280;SDS011;1652;51.318;6.202;2023-02-12T07:08:48;64.50;;;31.50;;
3280;SDS011;1652;51.318;6.202;2023-02-12T07:11:16;60.57;;;29.77;;
3280;SDS011;1652;51.318;6.202;2023-02-12T07:13:44;57.00;;;28.43;;
3280;SDS011;1652;51.318;6.202;2023-02-12T07:16:12;52.27;;;29.17;;
3280;SDS011;1652;51.318;6.202;2023-02-12T07:18:40;61.23;;;30.97;;
3280;SDS011;1652;51.318;6.202;2023-02-12T07:21:08;65.07;;;31.93;;
3280;SDS011;1652;51.318;6.202;2023-02-12T07:23:36;61.17;;;30.17;;
3280;SDS011;1652;51.318;6.202;2023-02-12T07:26:04;63.53;;;32.43;;
3280;SDS011;1652;51.318;6.202;2023-02-12T07:28:32;63.50;;;32.10;;
3280;SDS011;1652;51.318;6.202;2023-02-12T07:31:05;69.07;;;31.63;;
3280;SDS011;1652;51.318;6.202;2023-02-12T07:33:36;64.80;;;30.97;;
3280;SDS011;1652;51.318;6.202;2023-02-12T07:36:05;66.93;;;29.97;;
3280;SDS011;1652;51.318;6.202;2023-02-12T07:38:33;57.70;;;28.73;;
3280;SDS011;1652;51.318;6.202;2023-02-12T07:41:06;58.63;;;29.27;;
3280;SDS011;1652;51.318;6.202;2023-02-12T07:43:57;56.13;;;29.03;;
3280;SDS011;1652;51.318;6.202;2023-02-12T07:46:27;63.23;;;31.53;;
3280;SDS011;1652;51.318;6.202;2023-02-12T07:48:59;61.07;;;29.40;;
3280;SDS011;1652;51.318;6.202;2023-02-12T07:51:27;60.20;;;28.90;;
3280;SDS011;1652;51.318;6.202;2023-02-12T07:53:55;55.00;;;28.77;;
3280;SDS011;1652;51.318;6.202;2023-02-12T07:56:25;55.37;;;28.97;;
3280;SDS011;1652;51.318;6.202;2023-02-12T07:58:58;58.07;;;29.50;;
3280;SDS011;1652;51.318;6.202;2023-02-12T08:01:31;50.53;;;28.47;;
3280;SDS011;1652;51.318;6.202;2023-02-12T08:04:00;58.00;;;30.03;;
3280;SDS011;1652;51.318;6.202;2023-02-12T08:06:30;56.40;;;29.07;;
3280;SDS011;1652;51.318;6.202;2023-02-12T08:08:59;54.37;;;28.83;;
3280;SDS011;1652;51.318;6.202;2023-02-12T08:11:28;54.30;;;28.47;;
3280;SDS011;1652;51.318;6.202;2023-02-12T08:13:56;59.33;;;28.53;;
3280;SDS011;1652;51.318;6.202;2023-02-12T08:16:23;54.70;;;29.17;;
3280;SDS011;1652;51.318;6.202;2023-02-12T08:18:52;64.47;;;30.07;;
3280;SDS011;1652;51.318;6.202;2023-02-12T08:21:20;52.53;;;27.97;;
3280;SDS011;1652;51.318;6.202;2023-02-12T08:23:48;53.00;;;27.80;;
3280;SDS011;1652;51.318;6.202;2023-02-12T08:28:55;53.13;;;28.47;;
3280;SDS011;1652;51.318;6.202;2023-02-12T08:31:25;55.80;;;29.07;;
3280;SDS011;1652;51.318;6.202;2023-02-12T08:33:54;57.70;;;29.77;;
3280;SDS011;1652;51.318;6.202;2023-02-12T08:36:23;62.13;;;31.73;;
3280;SDS011;1652;51.318;6.202;2023-02-12T08:38:56;58.10;;;29.67;;
3280;SDS011;1652;51.318;6.202;2023-02-12T08:41:25;52.80;;;28.00;;
3280;SDS011;1652;51.318;6.202;2023-02-12T08:43:54;55.47;;;29.30;;
3280;SDS011;1652;51.318;6.202;2023-02-12T08:46:27;52.73;;;29.97;;
3280;SDS011;1652;51.318;6.202;2023-02-12T08:48:56;55.87;;;30.20;;
3280;SDS011;1652;51.318;6.202;2023-02-12T08:51:29;52.17;;;28.00;;
3280;SDS011;1652;51.318;6.202;2023-02-12T08:53:58;59.40;;;30.20;;
3280;SDS011;1652;51.318;6.202;2023-02-12T08:56:27;55.33;;;30.50;;
3280;SDS011;1652;51.318;6.202;2023-02-12T08:58:58;51.93;;;29.57;;
3280;SDS011;1652;51.318;6.202;2023-02-12T09:01:27;54.90;;;30.43;;
3280;SDS011;1652;51.318;6.202;2023-02-12T09:03:55;54.13;;;30.20;;
3280;SDS011;1652;51.318;6.202;2023-02-12T09:06:22;55.10;;;29.80;;
3280;SDS011;1652;51.318;6.202;2023-02-12T09:08:50;66.27;;;32.07;;
3280;SDS011;1652;51.318;6.202;2023-02-12T09:11:23;52.30;;;30.63;;
3280;SDS011;1652;51.318;6.202;2023-02-12T09:13:58;65.40;;;33.17;;
3280;SDS011;1652;51.318;6.202;2023-02-12T09:16:30;57.37;;;30.53;;
3280;SDS011;1652;51.318;6.202;2023-02-12T09:18:59;62.70;;;32.70;;
3280;SDS011;1652;51.318;6.202;2023-02-12T09:21:26;56.17;;;30.90;;
3280;SDS011;1652;51.318;6.202;2023-02-12T09:23:53;55.80;;;32.30;;
3280;SDS011;1652;51.318;6.202;2023-02-12T09:26:21;51.73;;;29.80;;
3280;SDS011;1652;51.318;6.202;2023-02-12T09:28:51;56.43;;;31.40;;
3280;SDS011;1652;51.318;6.202;2023-02-12T09:31:23;59.83;;;32.30;;
3280;SDS011;1652;51.318;6.202;2023-02-12T09:33:53;55.20;;;30.43;;
3280;SDS011;1652;51.318;6.202;2023-02-12T09:36:23;53.60;;;29.20;;
3280;SDS011;1652;51.318;6.202;2023-02-12T09:38:53;55.13;;;29.70;;
3280;SDS011;1652;51.318;6.202;2023-02-12T09:43:57;50.20;;;27.07;;
3280;SDS011;1652;51.318;6.202;2023-02-12T09:48:56;52.33;;;29.20;;
3280;SDS011;1652;51.318;6.202;2023-02-12T09:51:44;53.97;;;30.30;;
3280;SDS011;1652;51.318;6.202;2023-02-12T09:54:17;53.80;;;29.67;;
3280;SDS011;1652;51.318;6.202;2023-02-12T09:56:47;53.77;;;30.23;;
3280;SDS011;1652;51.318;6.202;2023-02-12T09:59:27;56.63;;;29.93;;
3280;SDS011;1652;51.318;6.202;2023-02-12T10:02:11;48.50;;;28.23;;
3280;SDS011;1652;51.318;6.202;2023-02-12T10:04:43;49.33;;;29.07;;
3280;SDS011;1652;51.318;6.202;2023-02-12T10:10:05;50.03;;;28.90;;
3280;SDS011;1652;51.318;6.202;2023-02-12T10:18:40;49.57;;;28.60;;
3280;SDS011;1652;51.318;6.202;2023-02-12T10:26:40;41.77;;;25.83;;
3280;SDS011;1652;51.318;6.202;2023-02-12T10:29:26;57.37;;;29.50;;
3280;SDS011;1652;51.318;6.202;2023-02-12T10:32:09;55.73;;;31.13;;
3280;SDS011;1652;51.318;6.202;2023-02-12T10:34:41;45.80;;;26.60;;
3280;SDS011;1652;51.318;6.202;2023-02-12T10:37:20;51.70;;;27.67;;
3280;SDS011;1652;51.318;6.202;2023-02-12T10:39:54;47.87;;;27.50;;
3280;SDS011;1652;51.318;6.202;2023-02-12T10:42:32;49.17;;;25.40;;
3280;SDS011;1652;51.318;6.202;2023-02-12T10:45:12;49.10;;;27.27;;
3280;SDS011;1652;51.318;6.202;2023-02-12T10:47:40;42.27;;;25.77;;
3280;SDS011;1652;51.318;6.202;2023-02-12T10:50:19;44.23;;;26.63;;
3280;SDS011;1652;51.318;6.202;2023-02-12T10:52:55;51.97;;;26.67;;
3280;SDS011;1652;51.318;6.202;2023-02-12T10:57:58;57.27;;;26.00;;
3280;SDS011;1652;51.318;6.202;2023-02-12T11:00:30;49.27;;;27.83;;
3280;SDS011;1652;51.318;6.202;2023-02-12T11:08:06;47.03;;;25.87;;
3280;SDS011;1652;51.318;6.202;2023-02-12T11:10:51;46.03;;;25.80;;
3280;SDS011;1652;51.318;6.202;2023-02-12T11:13:25;53.47;;;27.13;;
3280;SDS011;1652;51.318;6.202;2023-02-12T11:15:53;48.60;;;25.73;;
3280;SDS011;1652;51.318;6.202;2023-02-12T11:18:24;46.03;;;26.20;;
3280;SDS011;1652;51.318;6.202;2023-02-12T11:20:54;47.43;;;26.77;;
3280;SDS011;1652;51.318;6.202;2023-02-12T11:26:21;44.83;;;26.93;;
3280;SDS011;1652;51.318;6.202;2023-02-12T11:29:02;49.13;;;27.70;;
3280;SDS011;1652;51.318;6.202;2023-02-12T11:32:04;46.77;;;27.43;;
3280;SDS011;1652;51.318;6.202;2023-02-12T11:34:37;44.50;;;26.33;;
3280;SDS011;1652;51.318;6.202;2023-02-12T11:37:04;53.50;;;26.87;;
3280;SDS011;1652;51.318;6.202;2023-02-12T11:39:45;48.10;;;26.27;;
3280;SDS011;1652;51.318;6.202;2023-02-12T11:42:14;51.93;;;26.60;;
3280;SDS011;1652;51.318;6.202;2023-02-12T11:44:42;48.20;;;27.07;;
3280;SDS011;1652;51.318;6.202;2023-02-12T11:47:19;42.80;;;26.20;;
3280;SDS011;1652;51.318;6.202;2023-02-12T11:49:50;43.00;;;24.70;;
3280;SDS011;1652;51.318;6.202;2023-02-12T11:52:21;40.83;;;23.10;;
3280;SDS011;1652;51.318;6.202;2023-02-12T11:54:52;40.33;;;24.03;;
3280;SDS011;1652;51.318;6.202;2023-02-12T12:00:16;37.27;;;22.10;;
3280;SDS011;1652;51.318;6.202;2023-02-12T12:02:48;39.33;;;22.57;;
3280;SDS011;1652;51.318;6.202;2023-02-12T12:05:42;38.50;;;20.80;;
3280;SDS011;1652;51.318;6.202;2023-02-12T12:14:48;41.20;;;22.43;;
3280;SDS011;1652;51.318;6.202;2023-02-12T12:17:58;40.10;;;21.47;;
3280;SDS011;1652;51.318;6.202;2023-02-12T12:23:42;34.37;;;21.30;;
3280;SDS011;1652;51.318;6.202;2023-02-12T12:26:20;33.67;;;20.27;;
3280;SDS011;1652;51.318;6.202;2023-02-12T12:28:57;35.60;;;21.17;;
3280;SDS011;1652;51.318;6.202;2023-02-12T12:31:32;31.90;;;19.73;;
3280;SDS011;1652;51.318;6.202;2023-02-12T12:34:12;29.80;;;19.03;;
3280;SDS011;1652;51.318;6.202;2023-02-12T12:39:16;33.93;;;18.90;;
3280;SDS011;1652;51.318;6.202;2023-02-12T12:45:24;33.57;;;19.47;;
3280;SDS011;1652;51.318;6.202;2023-02-12T12:56:43;38.10;;;17.80;;
3280;SDS011;1652;51.318;6.202;2023-02-12T13:07:37;26.67;;;18.00;;
3280;SDS011;1652;51.318;6.202;2023-02-12T13:10:43;37.77;;;20.10;;
3280;SDS011;1652;51.318;6.202;2023-02-12T13:16:04;32.53;;;19.70;;
3280;SDS011;1652;51.318;6.202;2023-02-12T13:21:44;29.97;;;19.37;;
3280;SDS011;1652;51.318;6.202;2023-02-12T13:24:29;32.47;;;19.67;;
3280;SDS011;1652;51.318;6.202;2023-02-12T13:27:29;33.60;;;19.67;;
3280;SDS011;1652;51.318;6.202;2023-02-12T13:33:06;33.60;;;21.03;;
3280;SDS011;1652;51.318;6.202;2023-02-12T13:35:52;32.30;;;18.40;;
3280;SDS011;1652;51.318;6.202;2023-02-12T13:38:25;34.23;;;21.00;;
3280;SDS011;1652;51.318;6.202;2023-02-12T13:41:02;32.73;;;19.03;;
3280;SDS011;1652;51.318;6.202;2023-02-12T13:46:28;49.17;;;19.20;;
3280;SDS011;1652;51.318;6.202;2023-02-12T13:49:01;37.73;;;19.57;;
3280;SDS011;1652;51.318;6.202;2023-02-12T13:51:41;35.03;;;20.23;;
3280;SDS011;1652;51.318;6.202;2023-02-12T13:57:24;32.53;;;18.63;;
3280;SDS011;1652;51.318;6.202;2023-02-12T13:59:52;32.80;;;18.70;;
3280;SDS011;1652;51.318;6.202;2023-02-12T14:04:57;32.20;;;19.37;;
3280;SDS011;1652;51.318;6.202;2023-02-12T14:07:40;34.30;;;19.93;;
3280;SDS011;1652;51.318;6.202;2023-02-12T14:10:07;30.23;;;17.77;;
3280;SDS011;1652;51.318;6.202;2023-02-12T14:12:49;34.47;;;20.60;;
3280;SDS011;1652;51.318;6.202;2023-02-12T14:15:31;30.47;;;18.50;;
3280;SDS011;1652;51.318;6.202;2023-02-12T14:20:55;31.60;;;19.20;;
3280;SDS011;1652;51.318;6.202;2023-02-12T14:23:38;36.53;;;19.83;;
3280;SDS011;1652;51.318;6.202;2023-02-12T14:26:09;39.63;;;20.00;;
3280;SDS011;1652;51.318;6.202;2023-02-12T14:28:41;37.00;;;20.43;;
3280;SDS011;1652;51.318;6.202;2023-02-12T14:33:48;33.83;;;19.40;;
3280;SDS011;1652;51.318;6.202;2023-02-12T14:36:41;36.50;;;20.97;;
3280;SDS011;1652;51.318;6.202;2023-02-12T14:41:52;33.57;;;20.37;;
3280;SDS011;1652;51.318;6.202;2023-02-12T14:44:43;31.03;;;19.63;;
3280;SDS011;1652;51.318;6.202;2023-02-12T14:49:55;39.90;;;21.80;;
3280;SDS011;1652;51.318;6.202;2023-02-12T14:52:28;36.70;;;22.13;;
3280;SDS011;1652;51.318;6.202;2023-02-12T14:55:01;34.03;;;19.40;;
3280;SDS011;1652;51.318;6.202;2023-02-12T14:57:35;36.73;;;21.80;;
3280;SDS011;1652;51.318;6.202;2023-02-12T15:03:26;41.43;;;21.43;;
3280;SDS011;1652;51.318;6.202;2023-02-12T15:08:14;37.77;;;20.97;;
3280;SDS011;1652;51.318;6.202;2023-02-12T15:10:54;34.90;;;19.83;;
3280;SDS011;1652;51.318;6.202;2023-02-12T15:19:17;35.60;;;19.50;;
3280;SDS011;1652;51.318;6.202;2023-02-12T15:21:45;37.83;;;20.67;;
3280;SDS011;1652;51.318;6.202;2023-02-12T15:24:13;33.90;;;19.23;;
3280;SDS011;1652;51.318;6.202;2023-02-12T15:26:49;33.60;;;19.03;;
3280;SDS011;1652;51.318;6.202;2023-02-12T15:29:28;39.50;;;20.97;;
3280;SDS011;1652;51.318;6.202;2023-02-12T15:32:00;45.77;;;20.07;;
3280;SDS011;1652;51.318;6.202;2023-02-12T15:34:31;39.33;;;20.37;;
3280;SDS011;1652;51.318;6.202;2023-02-12T15:37:02;35.27;;;20.53;;
3280;SDS011;1652;51.318;6.202;2023-02-12T15:39:37;44.57;;;21.10;;
3280;SDS011;1652;51.318;6.202;2023-02-12T15:42:22;39.30;;;21.97;;
3280;SDS011;1652;51.318;6.202;2023-02-12T15:47:39;42.03;;;19.43;;
3280;SDS011;1652;51.318;6.202;2023-02-12T15:50:14;34.37;;;20.60;;
3280;SDS011;1652;51.318;6.202;2023-02-12T15:52:43;31.47;;;19.50;;
3280;SDS011;1652;51.318;6.202;2023-02-12T15:55:32;38.80;;;21.30;;
3280;SDS011;1652;51.318;6.202;2023-02-12T15:58:13;39.93;;;20.40;;
3280;SDS011;1652;51.318;6.202;2023-02-12T16:00:52;36.27;;;20.40;;
3280;SDS011;1652;51.318;6.202;2023-02-12T16:05:47;37.17;;;21.23;;
3280;SDS011;1652;51.318;6.202;2023-02-12T16:08:16;47.73;;;21.20;;
3280;SDS011;1652;51.318;6.202;2023-02-12T16:10:46;33.57;;;20.27;;
3280;SDS011;1652;51.318;6.202;2023-02-12T16:13:15;34.37;;;20.20;;
3280;SDS011;1652;51.318;6.202;2023-02-12T16:15:44;32.07;;;19.40;;
3280;SDS011;1652;51.318;6.202;2023-02-12T16:18:21;41.93;;;21.77;;
3280;SDS011;1652;51.318;6.202;2023-02-12T16:21:02;32.93;;;19.80;;
3280;SDS011;1652;51.318;6.202;2023-02-12T16:23:44;36.37;;;19.60;;
3280;SDS011;1652;51.318;6.202;2023-02-12T16:26:16;38.77;;;19.40;;
3280;SDS011;1652;51.318;6.202;2023-02-12T16:28:45;38.17;;;20.67;;
3280;SDS011;1652;51.318;6.202;2023-02-12T16:31:15;30.17;;;18.80;;
3280;SDS011;1652;51.318;6.202;2023-02-12T16:33:47;36.67;;;20.40;;
3280;SDS011;1652;51.318;6.202;2023-02-12T16:38:52;41.73;;;21.50;;
3280;SDS011;1652;51.318;6.202;2023-02-12T16:46:26;30.60;;;19.40;;
3280;SDS011;1652;51.318;6.202;2023-02-12T16:48:55;33.73;;;19.60;;
3280;SDS011;1652;51.318;6.202;2023-02-12T16:51:30;40.33;;;21.30;;
3280;SDS011;1652;51.318;6.202;2023-02-12T16:53:59;33.97;;;19.87;;
3280;SDS011;1652;51.318;6.202;2023-02-12T16:56:28;34.27;;;19.40;;
3280;SDS011;1652;51.318;6.202;2023-02-12T16:58:59;37.60;;;20.60;;
3280;SDS011;1652;51.318;6.202;2023-02-12T17:01:28;36.70;;;20.90;;
3280;SDS011;1652;51.318;6.202;2023-02-12T17:04:00;40.60;;;21.10;;
3280;SDS011;1652;51.318;6.202;2023-02-12T17:06:32;44.80;;;24.23;;
3280;SDS011;1652;51.318;6.202;2023-02-12T17:08:59;37.73;;;21.17;;
3280;SDS011;1652;51.318;6.202;2023-02-12T17:11:26;55.77;;;28.50;;
3280;SDS011;1652;51.318;6.202;2023-02-12T17:13:54;40.40;;;22.23;;
3280;SDS011;1652;51.318;6.202;2023-02-12T17:16:22;44.50;;;21.33;;
3280;SDS011;1652;51.318;6.202;2023-02-12T17:18:57;45.00;;;22.27;;
3280;SDS011;1652;51.318;6.202;2023-02-12T17:21:25;35.60;;;21.03;;
3280;SDS011;1652;51.318;6.202;2023-02-12T17:23:57;50.53;;;21.53;;
3280;SDS011;1652;51.318;6.202;2023-02-12T17:26:24;37.17;;;20.50;;
3280;SDS011;1652;51.318;6.202;2023-02-12T17:28:51;41.97;;;22.83;;
3280;SDS011;1652;51.318;6.202;2023-02-12T17:31:18;40.43;;;23.13;;
3280;SDS011;1652;51.318;6.202;2023-02-12T17:33:46;38.10;;;21.03;;
3280;SDS011;1652;51.318;6.202;2023-02-12T17:36:12;38.70;;;22.07;;
3280;SDS011;1652;51.318;6.202;2023-02-12T17:38:39;42.90;;;21.93;;
3280;SDS011;1652;51.318;6.202;2023-02-12T17:41:09;42.27;;;22.40;;
3280;SDS011;1652;51.318;6.202;2023-02-12T17:43:36;39.23;;;23.40;;
3280;SDS011;1652;51.318;6.202;2023-02-12T17:46:09;47.93;;;23.93;;
3280;SDS011;1652;51.318;6.202;2023-02-12T17:48:38;40.47;;;21.43;;
3280;SDS011;1652;51.318;6.202;2023-02-12T17:51:06;47.80;;;23.40;;
3280;SDS011;1652;51.318;6.202;2023-02-12T17:53:35;40.90;;;20.10;;